createdAt,value
2022-07-29T00:10:39.213Z,24.21
2022-07-29T00:25:57.183Z,23.72
2022-07-29T00:41:14.116Z,23.72
2022-07-29T00:56:30.108Z,23.68
2022-07-29T01:11:46.092Z,23.4
2022-07-29T01:27:03.047Z,23.14
2022-07-29T01:42:19.025Z,22.98
2022-07-29T01:57:35.958Z,22.86
2022-07-29T02:12:52.953Z,22.77
2022-07-29T02:28:10.894Z,22.76
2022-07-29T02:43:26.904Z,22.49
2022-07-29T02:58:42.832Z,21.98
2022-07-29T03:13:58.831Z,21.74
2022-07-29T03:29:15.768Z,21.54
2022-07-29T03:44:31.779Z,21.35
2022-07-29T03:59:48.714Z,21.58
2022-07-29T04:15:05.710Z,21.37
2022-07-29T04:30:22.643Z,21.5
2022-07-29T04:45:38.645Z,21.72
2022-07-29T05:00:54.589Z,21.48
2022-07-29T05:01:39.509Z,21.48
2022-07-29T05:16:11.700Z,22.3
2022-07-29T05:31:28.583Z,22.4
2022-07-29T05:46:45.606Z,23.13
2022-07-29T06:02:02.452Z,23.75
2022-07-29T06:17:19.426Z,23.42
2022-07-29T06:32:38.956Z,23.09
2022-07-29T06:47:52.353Z,23.23
2022-07-29T07:03:08.356Z,23.75
2022-07-29T07:18:24.283Z,24.13
2022-07-29T07:33:41.261Z,24.09
2022-07-29T07:48:58.304Z,24.15
2022-07-29T08:04:15.583Z,24.09
2022-07-29T08:19:30.171Z,24.09
2022-07-29T08:34:46.127Z,23.9
2022-07-29T08:49:33.934Z,23.38
2022-07-29T09:04:50.067Z,19.44
2022-07-29T09:20:07.033Z,19.32
2022-07-29T09:35:24.049Z,19.26
2022-07-29T09:50:40.997Z,19.22
2022-07-29T10:05:57.949Z,19.89
2022-07-29T10:21:35.317Z,19.99
2022-07-29T10:36:30.888Z,19.85
2022-07-29T10:51:46.856Z,19.69
2022-07-29T11:07:03.855Z,19.69
2022-07-29T11:22:19.831Z,19.8
2022-07-29T11:37:42.626Z,19.73
2022-07-29T11:52:53.761Z,19.65
2022-07-29T12:08:12.669Z,20.05
2022-07-29T12:23:29.417Z,20.46
2022-07-29T12:38:42.673Z,21.18
2022-07-29T12:53:58.638Z,22.41
2022-07-29T13:09:14.609Z,24.37
2022-07-29T13:24:33.586Z,23.91
2022-07-29T13:39:53.157Z,24.08
2022-07-29T13:55:05.503Z,25.07
2022-07-29T14:10:21.480Z,24.94
2022-07-29T14:25:38.436Z,25.38
2022-07-29T14:40:55.404Z,25.56
2022-07-29T14:56:35.641Z,25.87
2022-07-29T15:11:29.344Z,25.85
2022-07-29T15:26:46.308Z,26.16
2022-07-29T15:42:02.531Z,26.45
2022-07-29T15:57:18.209Z,26.46
2022-07-29T16:12:34.215Z,26.5
2022-07-29T16:27:51.151Z,26.66
2022-07-29T16:43:08.150Z,26.02
2022-07-29T16:58:25.077Z,26.7
2022-07-29T17:13:41.084Z,26.07
2022-07-29T17:28:58.020Z,25.93
2022-07-29T17:44:14.022Z,25.23
2022-07-29T17:59:29.958Z,25.05
2022-07-29T18:14:45.966Z,24.88
2022-07-29T18:30:04.542Z,24.41
2022-07-29T18:45:20.019Z,24.22
2022-07-29T19:00:36.828Z,24.09
2022-07-29T19:15:52.887Z,23.97
2022-07-29T19:31:09.864Z,23.88
2022-07-29T19:46:25.877Z,23.7
2022-07-29T20:01:41.736Z,23.44
2022-07-29T20:16:57.713Z,23.31
2022-07-29T20:32:15.665Z,23.11
2022-07-29T20:47:32.611Z,22.79
2022-07-29T21:02:49.678Z,22.52
2022-07-29T21:18:05.546Z,22.25
2022-07-29T21:33:22.591Z,22.1
2022-07-29T21:48:43.870Z,21.91
2022-07-29T22:03:54.492Z,21.84
2022-07-29T22:19:11.418Z,21.6
2022-07-29T22:34:34.118Z,21.37
2022-07-29T22:49:46.358Z,21.38
2022-07-29T23:05:02.328Z,21.3
2022-07-29T23:20:18.304Z,21.01
2022-07-29T23:35:35.265Z,20.85
2022-07-29T23:50:51.240Z,20.57
